Time;durP1;ratioP1;P1;durP2;ratioP2;P2;SDS_P1;SDS_P2;PMS_P1;PMS_P2;Temp;Humidity;BMP_temperature;BMP_pressure;BME280_temperature;BME280_humidity;BME280_pressure;Samples;Min_cycle;Max_cycle;Signal;HPM_P1;HPM_P2
2022/08/01 00:02:11;;;;;;;1.33;1.30;;;;;;;;;;5060288;28;20209;-82
2022/08/01 00:04:39;;;;;;;1.35;1.25;;;;;;;;;;5059779;28;20236;-82
2022/08/01 00:07:07;;;;;;;1.90;1.80;;;;;;;;;;5058331;28;20285;-82
2022/08/01 00:09:34;;;;;;;1.60;1.50;;;;;;;;;;5059695;28;20269;-82
2022/08/01 00:12:02;;;;;;;2.08;1.98;;;;;;;;;;5059242;28;20268;-82
2022/08/01 00:14:29;;;;;;;1.40;1.40;;;;;;;;;;5059439;28;20248;-82
2022/08/01 00:16:57;;;;;;;1.63;1.55;;;;;;;;;;5059019;28;20263;-82
2022/08/01 00:19:25;;;;;;;1.65;1.55;;;;;;;;;;5058838;28;20748;-82
2022/08/01 00:21:53;;;;;;;1.70;1.60;;;;;;;;;;5059553;28;20309;-82
2022/08/01 00:24:20;;;;;;;1.35;1.25;;;;;;;;;;5058664;28;20233;-83
2022/08/01 00:26:48;;;;;;;1.35;1.35;;;;;;;;;;5058475;28;20632;-82
2022/08/01 00:29:15;;;;;;;1.23;1.23;;;;;;;;;;5057701;28;20657;-82
2022/08/01 00:31:43;;;;;;;1.70;1.60;;;;;;;;;;5058425;28;20781;-82
2022/08/01 00:34:10;;;;;;;1.60;1.50;;;;;;;;;;5058914;28;20308;-82
2022/08/01 00:36:39;;;;;;;2.03;1.83;;;;;;;;;;5058372;28;20293;-82
2022/08/01 00:39:07;;;;;;;2.85;2.47;;;;;;;;;;5057665;28;20780;-82
2022/08/01 00:41:34;;;;;;;2.00;1.90;;;;;;;;;;5057452;28;20308;-82
2022/08/01 00:44:05;;;;;;;2.35;2.25;;;;;;;;;;5057896;28;20292;-82
2022/08/01 00:46:32;;;;;;;1.98;1.88;;;;;;;;;;5057796;28;20558;-82
2022/08/01 00:49:00;;;;;;;2.30;2.20;;;;;;;;;;5057937;28;20292;-81
2022/08/01 00:51:28;;;;;;;2.40;2.20;;;;;;;;;;5057551;28;20554;-83
2022/08/01 00:53:57;;;;;;;2.20;2.10;;;;;;;;;;5058112;28;20312;-82
2022/08/01 00:56:27;;;;;;;1.80;1.70;;;;;;;;;;5057785;28;20206;-82
2022/08/01 00:58:55;;;;;;;2.20;2.00;;;;;;;;;;5059292;28;20251;-82
2022/08/01 01:01:23;;;;;;;1.85;1.75;;;;;;;;;;5058008;28;20658;-82
2022/08/01 01:03:52;;;;;;;1.33;1.33;;;;;;;;;;5058117;28;20289;-82
2022/08/01 01:06:29;;;;;;;2.25;2.10;;;;;;;;;;5058559;28;20646;-83
2022/08/01 01:09:17;;;;;;;2.22;2.13;;;;;;;;;;5058070;28;20236;-82
2022/08/01 01:11:50;;;;;;;2.97;2.78;;;;;;;;;;5058279;28;20728;-82
2022/08/01 01:14:28;;;;;;;1.70;1.60;;;;;;;;;;5058020;28;20222;-82
2022/08/01 01:16:56;;;;;;;1.58;1.52;;;;;;;;;;5057944;28;20205;-82
2022/08/01 01:19:28;;;;;;;2.10;1.90;;;;;;;;;;5057533;28;20413;-82
2022/08/01 01:22:33;;;;;;;1.92;1.83;;;;;;;;;;5057981;28;20221;-82
2022/08/01 01:25:25;;;;;;;2.60;2.40;;;;;;;;;;5000461;28;20668;-82
2022/08/01 01:28:03;;;;;;;2.35;2.20;;;;;;;;;;5056899;28;20288;-82
2022/08/01 01:30:33;;;;;;;2.53;2.20;;;;;;;;;;5058026;28;20312;-83
2022/08/01 01:33:03;;;;;;;2.75;2.40;;;;;;;;;;5057560;28;20946;-82
2022/08/01 01:35:33;;;;;;;3.50;2.25;;;;;;;;;;5057513;28;20213;-82
2022/08/01 01:38:05;;;;;;;2.95;2.70;;;;;;;;;;5057490;28;20259;-83
2022/08/01 01:40:33;;;;;;;2.47;2.35;;;;;;;;;;5057563;28;20214;-83
2022/08/01 01:43:00;;;;;;;2.95;2.75;;;;;;;;;;5056973;28;20289;-83
2022/08/01 01:45:28;;;;;;;3.00;2.80;;;;;;;;;;5056587;28;20297;-83
2022/08/01 01:47:58;;;;;;;3.17;2.97;;;;;;;;;;5057022;28;20297;-83
2022/08/01 01:50:27;;;;;;;3.03;2.08;;;;;;;;;;5057175;28;20308;-83
2022/08/01 01:52:55;;;;;;;2.08;1.98;;;;;;;;;;5056350;28;20285;-83
2022/08/01 01:55:24;;;;;;;4.25;3.85;;;;;;;;;;5057024;28;20288;-82
2022/08/01 01:57:52;;;;;;;2.60;2.40;;;;;;;;;;5057260;28;20205;-83
2022/08/01 02:00:20;;;;;;;1.92;1.83;;;;;;;;;;5056272;28;20317;-83
2022/08/01 02:02:48;;;;;;;3.00;2.70;;;;;;;;;;5056146;28;20693;-82
2022/08/01 02:05:17;;;;;;;2.78;2.58;;;;;;;;;;5056585;28;20285;-83
2022/08/01 02:07:45;;;;;;;3.55;3.22;;;;;;;;;;5055736;28;20663;-83
2022/08/01 02:10:13;;;;;;;3.70;3.40;;;;;;;;;;5055815;28;20304;-83
2022/08/01 02:12:45;;;;;;;2.63;2.42;;;;;;;;;;5056217;28;20205;-82
2022/08/01 02:15:14;;;;;;;2.75;2.55;;;;;;;;;;5056302;28;20229;-83
2022/08/01 02:17:47;;;;;;;3.65;3.28;;;;;;;;;;5056448;28;20868;-83
2022/08/01 02:20:17;;;;;;;3.53;3.33;;;;;;;;;;5055652;28;20217;-83
2022/08/01 02:22:49;;;;;;;3.83;3.53;;;;;;;;;;5056930;28;20210;-83
2022/08/01 02:25:23;;;;;;;3.42;3.20;;;;;;;;;;5055650;28;20261;-83
2022/08/01 02:27:57;;;;;;;3.78;3.47;;;;;;;;;;5055757;28;20201;-82
2022/08/01 02:30:26;;;;;;;3.35;3.05;;;;;;;;;;5058748;28;20248;-83
2022/08/01 02:33:01;;;;;;;3.35;2.40;;;;;;;;;;5059298;28;20669;-82
2022/08/01 02:35:33;;;;;;;3.17;2.97;;;;;;;;;;5059463;28;20204;-83
2022/08/01 02:38:02;;;;;;;3.63;3.35;;;;;;;;;;5059352;28;20685;-82
2022/08/01 02:40:33;;;;;;;3.35;3.10;;;;;;;;;;5058880;28;20843;-83
2022/08/01 02:43:03;;;;;;;4.00;3.70;;;;;;;;;;5059126;28;20220;-82
2022/08/01 02:45:31;;;;;;;3.85;3.58;;;;;;;;;;5059531;28;20247;-83
2022/08/01 02:48:13;;;;;;;3.75;3.45;;;;;;;;;;5059055;28;20292;-82
2022/08/01 02:50:45;;;;;;;4.43;3.90;;;;;;;;;;5059701;28;20224;-82
2022/08/01 02:53:13;;;;;;;4.00;3.70;;;;;;;;;;5059544;28;20289;-83
2022/08/01 02:55:41;;;;;;;3.60;3.30;;;;;;;;;;5058863;28;20736;-83
2022/08/01 02:58:11;;;;;;;2.80;2.60;;;;;;;;;;5058522;28;20263;-82
2022/08/01 03:00:38;;;;;;;2.70;2.50;;;;;;;;;;5058676;28;20300;-82
2022/08/01 03:03:08;;;;;;;2.53;2.38;;;;;;;;;;5058646;28;20296;-82
2022/08/01 03:05:37;;;;;;;2.42;2.30;;;;;;;;;;5058720;28;20310;-82
2022/08/01 03:08:07;;;;;;;3.97;3.70;;;;;;;;;;5058523;28;20828;-83
2022/08/01 03:10:39;;;;;;;2.67;2.50;;;;;;;;;;5059726;28;20308;-81
2022/08/01 03:13:08;;;;;;;4.95;4.55;;;;;;;;;;5058115;28;20292;-82
2022/08/01 03:15:39;;;;;;;3.13;2.92;;;;;;;;;;5057678;28;20591;-82
2022/08/01 03:18:10;;;;;;;4.22;3.47;;;;;;;;;;5057335;28;20265;-82
2022/08/01 03:20:38;;;;;;;3.90;3.60;;;;;;;;;;5058063;28;20321;-82
2022/08/01 03:23:10;;;;;;;3.63;3.33;;;;;;;;;;5058478;28;20301;-82
2022/08/01 03:25:41;;;;;;;2.92;2.65;;;;;;;;;;5058712;28;20201;-83
2022/08/01 03:28:13;;;;;;;2.90;2.20;;;;;;;;;;5058639;28;20269;-82
2022/08/01 03:30:41;;;;;;;2.15;2.05;;;;;;;;;;5057695;28;20305;-82
2022/08/01 03:33:08;;;;;;;1.98;1.88;;;;;;;;;;5057823;28;20587;-82
2022/08/01 03:35:40;;;;;;;4.18;3.75;;;;;;;;;;5057085;28;20721;-83
2022/08/01 03:38:11;;;;;;;2.70;2.42;;;;;;;;;;5057487;28;20612;-82
2022/08/01 03:40:41;;;;;;;2.50;2.30;;;;;;;;;;5056756;28;20312;-82
2022/08/01 03:43:14;;;;;;;3.58;3.28;;;;;;;;;;5057790;28;20300;-82
2022/08/01 03:45:45;;;;;;;3.72;3.53;;;;;;;;;;5057591;28;20201;-82
2022/08/01 03:48:17;;;;;;;3.80;3.50;;;;;;;;;;5057030;28;20297;-82
2022/08/01 03:50:48;;;;;;;2.20;2.10;;;;;;;;;;5056786;28;20285;-82
2022/08/01 03:53:19;;;;;;;3.15;2.95;;;;;;;;;;5058518;28;20201;-82
2022/08/01 03:55:46;;;;;;;2.67;2.45;;;;;;;;;;5057915;28;20768;-82
2022/08/01 03:58:15;;;;;;;3.55;3.25;;;;;;;;;;5057971;28;20275;-82
2022/08/01 04:00:43;;;;;;;3.00;2.80;;;;;;;;;;5058894;28;20225;-82
2022/08/01 04:03:11;;;;;;;3.58;3.28;;;;;;;;;;5058646;28;20711;-83
2022/08/01 04:05:39;;;;;;;3.90;3.58;;;;;;;;;;5058736;28;20304;-82
2022/08/01 04:08:06;;;;;;;3.67;3.38;;;;;;;;;;5057583;28;20646;-82
2022/08/01 04:10:35;;;;;;;3.42;3.22;;;;;;;;;;5057559;28;20770;-82
2022/08/01 04:13:03;;;;;;;2.58;2.38;;;;;;;;;;5059277;28;20638;-83
2022/08/01 04:15:30;;;;;;;3.03;2.67;;;;;;;;;;5059708;28;20316;-83
2022/08/01 04:17:58;;;;;;;3.50;3.20;;;;;;;;;;5058369;28;20291;-83
2022/08/01 04:20:26;;;;;;;3.03;2.50;;;;;;;;;;5058628;28;20708;-83
2022/08/01 04:22:53;;;;;;;3.15;2.95;;;;;;;;;;5057828;28;20293;-82
2022/08/01 04:25:26;;;;;;;2.70;2.50;;;;;;;;;;5056705;28;20641;-82
2022/08/01 04:27:56;;;;;;;2.45;2.25;;;;;;;;;;5054944;28;20678;-83
2022/08/01 04:30:27;;;;;;;1.73;1.60;;;;;;;;;;5055807;28;20217;-82
2022/08/01 04:32:56;;;;;;;2.13;2.03;;;;;;;;;;5055886;28;20205;-82
2022/08/01 04:35:25;;;;;;;1.45;1.35;;;;;;;;;;5056024;28;20716;-82
2022/08/01 04:37:53;;;;;;;1.65;1.55;;;;;;;;;;5055328;28;20666;-82
2022/08/01 04:40:22;;;;;;;1.40;1.30;;;;;;;;;;5055762;28;20221;-82
2022/08/01 04:42:50;;;;;;;1.45;1.35;;;;;;;;;;5055373;28;20201;-82
2022/08/01 04:45:21;;;;;;;1.50;1.40;;;;;;;;;;5054989;28;20288;-82
2022/08/01 04:47:48;;;;;;;1.88;1.40;;;;;;;;;;5054845;28;20623;-82
2022/08/01 04:50:16;;;;;;;1.60;1.50;;;;;;;;;;5055000;28;20317;-82
2022/08/01 04:52:43;;;;;;;1.48;1.38;;;;;;;;;;5058188;28;20736;-82
2022/08/01 04:55:11;;;;;;;1.27;1.27;;;;;;;;;;5054860;28;20359;-82
2022/08/01 04:57:42;;;;;;;1.50;1.40;;;;;;;;;;5054528;28;20263;-83
2022/08/01 05:00:11;;;;;;;1.75;1.65;;;;;;;;;;5055189;28;20308;-82
2022/08/01 05:02:39;;;;;;;2.95;2.10;;;;;;;;;;5054595;28;20213;-82
2022/08/01 05:05:10;;;;;;;1.88;1.70;;;;;;;;;;5054103;28;20828;-79
2022/08/01 05:07:37;;;;;;;3.13;2.92;;;;;;;;;;5053486;28;20207;-78
2022/08/01 05:10:06;;;;;;;1.85;1.75;;;;;;;;;;5053780;28;20312;-80
2022/08/01 05:12:34;;;;;;;2.03;1.92;;;;;;;;;;5054108;28;20226;-78
2022/08/01 05:15:01;;;;;;;2.58;2.03;;;;;;;;;;5053713;28;20307;-79
2022/08/01 05:17:29;;;;;;;4.50;3.08;;;;;;;;;;5053541;28;20197;-79
2022/08/01 05:19:58;;;;;;;3.22;2.13;;;;;;;;;;5053389;28;20249;-78
2022/08/01 05:22:25;;;;;;;2.00;1.80;;;;;;;;;;5053720;28;20284;-79
2022/08/01 05:24:53;;;;;;;2.30;2.10;;;;;;;;;;5053294;28;20643;-79
2022/08/01 05:27:21;;;;;;;1.85;1.75;;;;;;;;;;5053486;28;20567;-78
2022/08/01 05:29:48;;;;;;;2.50;2.30;;;;;;;;;;5052220;28;20292;-79
2022/08/01 05:32:16;;;;;;;2.25;2.05;;;;;;;;;;5050828;28;20237;-80
2022/08/01 05:34:43;;;;;;;3.60;2.70;;;;;;;;;;5047352;28;20709;-79
2022/08/01 05:37:12;;;;;;;2.53;2.35;;;;;;;;;;5048547;28;20257;-80
2022/08/01 05:39:40;;;;;;;3.25;2.13;;;;;;;;;;5048748;28;20204;-77
2022/08/01 05:42:07;;;;;;;2.58;2.38;;;;;;;;;;5043190;28;20210;-79
2022/08/01 05:44:35;;;;;;;3.20;2.92;;;;;;;;;;5051448;28;20576;-79
2022/08/01 05:47:03;;;;;;;2.42;2.22;;;;;;;;;;5052706;28;20288;-78
2022/08/01 05:49:31;;;;;;;3.20;2.45;;;;;;;;;;5053091;28;20216;-78
2022/08/01 05:51:58;;;;;;;2.97;2.72;;;;;;;;;;5052157;28;20599;-78
2022/08/01 05:54:27;;;;;;;2.60;2.40;;;;;;;;;;5052938;28;20289;-79
2022/08/01 05:56:59;;;;;;;3.00;2.60;;;;;;;;;;5033836;28;20301;-78
2022/08/01 05:59:26;;;;;;;4.18;2.60;;;;;;;;;;5032861;28;20659;-77
2022/08/01 06:01:54;;;;;;;2.58;2.38;;;;;;;;;;5041721;28;20308;-79
2022/08/01 06:04:21;;;;;;;2.75;2.55;;;;;;;;;;5040557;28;20289;-79
2022/08/01 06:06:49;;;;;;;3.45;3.00;;;;;;;;;;5032954;28;20289;-78
2022/08/01 06:09:17;;;;;;;3.38;2.53;;;;;;;;;;5050046;28;20220;-78
2022/08/01 06:11:46;;;;;;;3.13;2.88;;;;;;;;;;5052203;28;20654;-78
2022/08/01 06:14:13;;;;;;;2.17;2.05;;;;;;;;;;5053234;28;20313;-78
2022/08/01 06:16:41;;;;;;;1.98;1.88;;;;;;;;;;5052031;28;20314;-79
2022/08/01 06:19:08;;;;;;;1.85;1.70;;;;;;;;;;5052236;28;20640;-78
2022/08/01 06:21:36;;;;;;;2.05;1.95;;;;;;;;;;5052117;28;20311;-79
2022/08/01 06:24:03;;;;;;;2.00;1.90;;;;;;;;;;5052804;28;20229;-79
2022/08/01 06:26:31;;;;;;;1.60;1.50;;;;;;;;;;5051994;28;20284;-79
2022/08/01 06:29:00;;;;;;;1.90;1.80;;;;;;;;;;5052101;28;20197;-77
2022/08/01 06:31:28;;;;;;;1.70;1.60;;;;;;;;;;5051721;28;20328;-78
2022/08/01 06:33:57;;;;;;;1.63;1.52;;;;;;;;;;5052129;28;20288;-78
2022/08/01 06:36:25;;;;;;;1.65;1.42;;;;;;;;;;5051337;28;20696;-78
2022/08/01 06:38:52;;;;;;;1.63;1.52;;;;;;;;;;5052170;28;20650;-79
2022/08/01 06:41:20;;;;;;;1.50;1.40;;;;;;;;;;5051806;28;20222;-78
2022/08/01 06:43:48;;;;;;;2.05;1.95;;;;;;;;;;5051490;28;20296;-77
2022/08/01 06:46:16;;;;;;;3.10;1.95;;;;;;;;;;5053687;28;20248;-78
2022/08/01 06:48:44;;;;;;;2.28;1.75;;;;;;;;;;5062310;28;20229;-78
2022/08/01 06:51:15;;;;;;;1.75;1.65;;;;;;;;;;5060783;28;20221;-77
2022/08/01 06:53:42;;;;;;;1.45;1.33;;;;;;;;;;5065172;28;20206;-77
2022/08/01 06:56:10;;;;;;;1.65;1.55;;;;;;;;;;5060503;28;20317;-79
2022/08/01 06:58:37;;;;;;;1.80;1.70;;;;;;;;;;5057599;28;20229;-79
2022/08/01 07:01:06;;;;;;;1.58;1.48;;;;;;;;;;5055435;28;20309;-79
2022/08/01 07:03:36;;;;;;;1.10;1.00;;;;;;;;;;5054117;28;20202;-79
2022/08/01 07:06:04;;;;;;;1.00;1.00;;;;;;;;;;5053731;28;20271;-79
2022/08/01 07:08:32;;;;;;;1.27;1.17;;;;;;;;;;5054293;28;20285;-79
2022/08/01 07:10:59;;;;;;;0.80;0.80;;;;;;;;;;5054080;28;20317;-80
2022/08/01 07:13:28;;;;;;;0.80;0.80;;;;;;;;;;5053282;28;20206;-79
2022/08/01 07:15:55;;;;;;;1.40;1.30;;;;;;;;;;5055469;28;20650;-79
2022/08/01 07:18:23;;;;;;;1.00;1.00;;;;;;;;;;5057879;28;20205;-79
2022/08/01 07:20:52;;;;;;;1.35;1.25;;;;;;;;;;5056761;28;20305;-79
2022/08/01 07:23:19;;;;;;;1.40;1.30;;;;;;;;;;5059136;28;20265;-79
2022/08/01 07:25:48;;;;;;;1.02;1.02;;;;;;;;;;5057798;28;20292;-79
2022/08/01 07:28:16;;;;;;;1.10;1.10;;;;;;;;;;5057796;28;20690;-78
2022/08/01 07:30:44;;;;;;;1.10;1.10;;;;;;;;;;5056222;28;20249;-79
2022/08/01 07:33:11;;;;;;;2.70;1.23;;;;;;;;;;5056502;28;20689;-79
2022/08/01 07:35:39;;;;;;;1.02;1.02;;;;;;;;;;5059530;28;20664;-80
2022/08/01 07:38:08;;;;;;;0.93;0.93;;;;;;;;;;5057945;28;20328;-79
2022/08/01 07:40:36;;;;;;;1.63;1.52;;;;;;;;;;5056393;28;20312;-79
2022/08/01 07:43:04;;;;;;;0.85;0.85;;;;;;;;;;5055944;28;20300;-79
2022/08/01 07:45:32;;;;;;;0.82;0.82;;;;;;;;;;5056004;28;20784;-79
2022/08/01 07:48:04;;;;;;;1.30;1.20;;;;;;;;;;5056488;28;20280;-79
2022/08/01 07:50:32;;;;;;;2.25;1.42;;;;;;;;;;5056179;28;20304;-80
2022/08/01 07:52:59;;;;;;;1.42;1.33;;;;;;;;;;5056118;28;20733;-79
2022/08/01 07:55:28;;;;;;;1.13;1.13;;;;;;;;;;5057259;28;20209;-80
2022/08/01 07:57:56;;;;;;;1.63;1.52;;;;;;;;;;5056257;28;20776;-79
2022/08/01 08:00:23;;;;;;;1.80;1.70;;;;;;;;;;5056320;28;20264;-79
2022/08/01 08:02:51;;;;;;;1.73;1.63;;;;;;;;;;5058753;28;20205;-80
2022/08/01 08:05:19;;;;;;;1.65;1.55;;;;;;;;;;5058489;28;20293;-81
2022/08/01 08:07:46;;;;;;;1.58;1.48;;;;;;;;;;5059380;28;20202;-79
2022/08/01 08:10:14;;;;;;;1.50;1.40;;;;;;;;;;5057754;28;20313;-79
2022/08/01 08:12:43;;;;;;;1.80;1.70;;;;;;;;;;5060774;28;20606;-79
2022/08/01 08:15:11;;;;;;;1.58;1.48;;;;;;;;;;5061986;28;20288;-79
2022/08/01 08:17:39;;;;;;;2.55;2.35;;;;;;;;;;5062929;28;20661;-79
2022/08/01 08:20:08;;;;;;;1.73;1.63;;;;;;;;;;5059945;28;20670;-79
2022/08/01 08:22:37;;;;;;;1.63;1.52;;;;;;;;;;5060095;28;20741;-79
2022/08/01 08:25:05;;;;;;;1.58;1.48;;;;;;;;;;5059669;28;20265;-79
2022/08/01 08:27:33;;;;;;;1.58;1.48;;;;;;;;;;5056238;28;20198;-80
2022/08/01 08:30:02;;;;;;;1.50;1.40;;;;;;;;;;5057239;28;20686;-79
2022/08/01 08:32:29;;;;;;;1.75;1.65;;;;;;;;;;5056423;28;20293;-80
2022/08/01 08:34:57;;;;;;;1.17;1.10;;;;;;;;;;5057542;28;20297;-79
2022/08/01 08:37:24;;;;;;;1.50;1.40;;;;;;;;;;5056951;28;20809;-79
2022/08/01 08:39:52;;;;;;;1.90;1.80;;;;;;;;;;5056547;28;20231;-79
2022/08/01 08:42:20;;;;;;;1.48;1.10;;;;;;;;;;5056652;28;20237;-79
2022/08/01 08:44:47;;;;;;;1.80;1.70;;;;;;;;;;5058077;28;20221;-79
2022/08/01 08:47:17;;;;;;;1.80;1.20;;;;;;;;;;5056383;28;20288;-78
2022/08/01 08:49:45;;;;;;;2.25;1.50;;;;;;;;;;5056099;28;20292;-80
2022/08/01 08:52:13;;;;;;;1.50;1.40;;;;;;;;;;5058257;28;20224;-80
2022/08/01 08:54:43;;;;;;;1.70;1.60;;;;;;;;;;5057494;28;20263;-78
2022/08/01 08:57:11;;;;;;;1.63;1.52;;;;;;;;;;5056353;28;20269;-80
2022/08/01 08:59:39;;;;;;;1.42;1.33;;;;;;;;;;5056700;28;20201;-80
2022/08/01 09:02:06;;;;;;;1.25;1.23;;;;;;;;;;5057177;28;20210;-80
2022/08/01 09:04:35;;;;;;;1.58;1.48;;;;;;;;;;5057031;28;20289;-79
2022/08/01 09:07:05;;;;;;;1.55;1.45;;;;;;;;;;5056399;28;20681;-80
2022/08/01 09:09:33;;;;;;;1.67;1.58;;;;;;;;;;5056436;28;20205;-80
2022/08/01 09:12:01;;;;;;;2.05;1.95;;;;;;;;;;5056005;28;20682;-80
2022/08/01 09:14:30;;;;;;;1.90;1.80;;;;;;;;;;5054658;28;20643;-79
2022/08/01 09:17:06;;;;;;;1.83;1.73;;;;;;;;;;5054972;28;20213;-79
2022/08/01 09:19:39;;;;;;;1.58;1.48;;;;;;;;;;5054647;28;20198;-79
2022/08/01 09:22:09;;;;;;;1.60;1.50;;;;;;;;;;5054523;28;20297;-80
2022/08/01 09:24:37;;;;;;;1.40;1.38;;;;;;;;;;5054362;28;20237;-79
2022/08/01 09:27:19;;;;;;;1.70;1.60;;;;;;;;;;5054432;28;20284;-79
2022/08/01 09:29:46;;;;;;;1.88;1.77;;;;;;;;;;5054316;28;20239;-79
2022/08/01 09:32:14;;;;;;;2.50;2.33;;;;;;;;;;5054021;28;20622;-81
2022/08/01 09:34:43;;;;;;;1.90;1.67;;;;;;;;;;5053878;28;20292;-79
2022/08/01 09:37:11;;;;;;;1.65;1.55;;;;;;;;;;5053671;28;20256;-78
2022/08/01 09:39:42;;;;;;;1.98;1.80;;;;;;;;;;5030655;28;20237;-78
2022/08/01 09:42:24;;;;;;;1.40;1.40;;;;;;;;;;5033335;28;20237;-78
2022/08/01 09:44:52;;;;;;;1.60;1.50;;;;;;;;;;5033203;28;20202;-79
2022/08/01 09:47:21;;;;;;;1.70;1.60;;;;;;;;;;5032581;28;20288;-79
2022/08/01 09:49:57;;;;;;;1.73;1.63;;;;;;;;;;5033388;28;20204;-79
2022/08/01 09:52:28;;;;;;;1.98;1.88;;;;;;;;;;5046590;28;20284;-80
2022/08/01 09:54:57;;;;;;;1.85;1.75;;;;;;;;;;5044708;28;20313;-80
2022/08/01 09:57:25;;;;;;;1.70;1.60;;;;;;;;;;5032184;28;20230;-79
2022/08/01 09:59:55;;;;;;;2.30;2.15;;;;;;;;;;5033157;28;20232;-79
2022/08/01 10:02:33;;;;;;;2.03;1.92;;;;;;;;;;5045808;28;20209;-78
2022/08/01 10:05:04;;;;;;;2.13;2.03;;;;;;;;;;5052933;28;20288;-79
2022/08/01 10:07:32;;;;;;;2.60;1.50;;;;;;;;;;5052626;28;20761;-79
2022/08/01 10:10:12;;;;;;;1.30;1.30;;;;;;;;;;5052245;28;20308;-80
2022/08/01 10:12:39;;;;;;;1.63;1.52;;;;;;;;;;5052988;28;20208;-80
2022/08/01 10:15:08;;;;;;;1.95;1.85;;;;;;;;;;5052799;28;20301;-79
2022/08/01 10:17:36;;;;;;;1.60;1.50;;;;;;;;;;5037729;28;20730;-79
2022/08/01 10:20:07;;;;;;;1.42;1.40;;;;;;;;;;5032305;28;20309;-80
2022/08/01 10:22:35;;;;;;;1.40;1.35;;;;;;;;;;5032997;28;20289;-80
2022/08/01 10:25:05;;;;;;;1.23;1.20;;;;;;;;;;5032675;28;20210;-80
2022/08/01 10:27:34;;;;;;;1.60;1.50;;;;;;;;;;5032720;28;20774;-79
2022/08/01 10:30:05;;;;;;;2.00;1.30;;;;;;;;;;5032915;28;20225;-80
2022/08/01 10:32:34;;;;;;;1.38;1.30;;;;;;;;;;5046871;28;20688;-80
2022/08/01 10:35:04;;;;;;;1.23;1.23;;;;;;;;;;5053374;28;20205;-80
2022/08/01 10:37:31;;;;;;;1.40;1.00;;;;;;;;;;5052784;28;20288;-79
2022/08/01 10:39:59;;;;;;;1.35;0.95;;;;;;;;;;5052029;28;20316;-81
2022/08/01 10:42:27;;;;;;;1.08;0.95;;;;;;;;;;5053009;28;20255;-82
2022/08/01 10:44:55;;;;;;;0.63;0.63;;;;;;;;;;5052669;28;20673;-81
2022/08/01 10:47:29;;;;;;;0.50;0.50;;;;;;;;;;5052127;28;20236;-81
2022/08/01 10:50:03;;;;;;;0.60;0.60;;;;;;;;;;5052575;28;20751;-80
2022/08/01 10:52:32;;;;;;;0.60;0.60;;;;;;;;;;5056172;28;20284;-80
2022/08/01 10:55:09;;;;;;;0.60;0.60;;;;;;;;;;5056276;28;20288;-81
2022/08/01 10:57:44;;;;;;;0.60;0.60;;;;;;;;;;5056152;28;20206;-80
2022/08/01 11:00:19;;;;;;;1.10;0.95;;;;;;;;;;5056506;28;20293;-80
2022/08/01 11:03:01;;;;;;;0.50;0.50;;;;;;;;;;5056299;28;20595;-80
2022/08/01 11:05:31;;;;;;;0.52;0.52;;;;;;;;;;5056689;28;20258;-81
2022/08/01 11:08:04;;;;;;;0.85;0.85;;;;;;;;;;5056233;28;20241;-80
2022/08/01 11:10:37;;;;;;;0.47;0.47;;;;;;;;;;5056055;28;20277;-81
2022/08/01 11:13:07;;;;;;;0.40;0.40;;;;;;;;;;5056929;28;20583;-81
2022/08/01 11:15:35;;;;;;;0.28;0.28;;;;;;;;;;5056487;28;20209;-81
2022/08/01 11:18:05;;;;;;;0.50;0.50;;;;;;;;;;5055826;28;20206;-80
2022/08/01 11:20:35;;;;;;;0.55;0.55;;;;;;;;;;5056174;28;20230;-79
2022/08/01 11:23:28;;;;;;;0.40;0.40;;;;;;;;;;5056639;28;20206;-80
2022/08/01 11:26:17;;;;;;;0.30;0.30;;;;;;;;;;5056652;28;20233;-82
2022/08/01 11:28:47;;;;;;;0.55;0.55;;;;;;;;;;5055835;28;20736;-80
2022/08/01 11:31:29;;;;;;;0.50;0.50;;;;;;;;;;5055985;28;20309;-81
2022/08/01 11:33:57;;;;;;;0.73;0.73;;;;;;;;;;5056282;28;20205;-80
2022/08/01 11:36:26;;;;;;;0.50;0.50;;;;;;;;;;5056331;28;20201;-80
2022/08/01 11:39:16;;;;;;;0.43;0.43;;;;;;;;;;5055789;28;20221;-80
2022/08/01 11:41:47;;;;;;;0.60;0.60;;;;;;;;;;5055186;28;20272;-80
2022/08/01 11:44:22;;;;;;;0.70;0.70;;;;;;;;;;5056094;28;20288;-81
2022/08/01 11:47:02;;;;;;;0.60;0.60;;;;;;;;;;5055708;28;20243;-81
2022/08/01 11:49:50;;;;;;;0.60;0.60;;;;;;;;;;5055931;28;20197;-81
2022/08/01 11:52:20;;;;;;;0.57;0.57;;;;;;;;;;5055918;28;20221;-80
2022/08/01 11:54:52;;;;;;;0.60;0.60;;;;;;;;;;5046088;28;20289;-81
2022/08/01 11:57:22;;;;;;;0.70;0.68;;;;;;;;;;5035590;28;20242;-80
2022/08/01 11:59:53;;;;;;;0.60;0.60;;;;;;;;;;5045387;28;20213;-81
2022/08/01 12:02:26;;;;;;;0.60;0.60;;;;;;;;;;5054044;28;20308;-81
2022/08/01 12:04:56;;;;;;;0.70;0.70;;;;;;;;;;5055713;28;20293;-80
2022/08/01 12:07:26;;;;;;;0.57;0.57;;;;;;;;;;5055139;28;20215;-80
2022/08/01 12:10:04;;;;;;;0.70;0.70;;;;;;;;;;5055087;28;20201;-80
2022/08/01 12:12:33;;;;;;;0.60;0.60;;;;;;;;;;5055875;28;20203;-80
2022/08/01 12:15:03;;;;;;;0.60;0.60;;;;;;;;;;5056043;28;20292;-81
2022/08/01 12:17:33;;;;;;;0.80;0.80;;;;;;;;;;5055489;28;20380;-81
2022/08/01 12:20:01;;;;;;;0.60;0.60;;;;;;;;;;5054982;28;20232;-80
2022/08/01 12:22:28;;;;;;;0.70;0.70;;;;;;;;;;5054418;28;20205;-81
2022/08/01 12:24:56;;;;;;;0.75;0.75;;;;;;;;;;5054734;28;20707;-80
2022/08/01 12:27:30;;;;;;;0.77;0.77;;;;;;;;;;5054549;28;20209;-81
2022/08/01 12:29:59;;;;;;;0.80;0.80;;;;;;;;;;5054301;28;20260;-80
2022/08/01 12:32:30;;;;;;;0.90;0.90;;;;;;;;;;5054264;28;20293;-79
2022/08/01 12:35:01;;;;;;;0.80;0.80;;;;;;;;;;5054160;28;20292;-79
2022/08/01 12:37:29;;;;;;;0.82;0.82;;;;;;;;;;5053626;28;20296;-79
2022/08/01 12:39:58;;;;;;;1.00;1.00;;;;;;;;;;5053875;28;20314;-80
2022/08/01 12:42:28;;;;;;;0.82;0.82;;;;;;;;;;5053899;28;20712;-80
2022/08/01 12:44:56;;;;;;;1.05;1.05;;;;;;;;;;5054576;28;20228;-81
2022/08/01 12:47:25;;;;;;;1.13;1.10;;;;;;;;;;5053767;28;20677;-80
2022/08/01 12:49:53;;;;;;;0.82;0.82;;;;;;;;;;5052749;28;20208;-79
2022/08/01 12:52:22;;;;;;;0.80;0.80;;;;;;;;;;5052944;28;20292;-79
2022/08/01 12:55:09;;;;;;;0.73;0.73;;;;;;;;;;5053675;28;20205;-80
2022/08/01 12:57:40;;;;;;;1.00;1.00;;;;;;;;;;5053188;28;20213;-79
2022/08/01 13:00:21;;;;;;;0.90;0.90;;;;;;;;;;5053478;28;20308;-80
2022/08/01 13:02:50;;;;;;;1.52;1.10;;;;;;;;;;5053558;28;20241;-79
2022/08/01 13:05:18;;;;;;;1.00;1.00;;;;;;;;;;5052981;28;20284;-79
2022/08/01 13:07:49;;;;;;;1.02;1.02;;;;;;;;;;5052881;28;20296;-80
2022/08/01 13:10:26;;;;;;;1.50;1.40;;;;;;;;;;5053552;28;20253;-79
2022/08/01 13:12:57;;;;;;;1.20;1.20;;;;;;;;;;5052985;28;20236;-79
2022/08/01 13:15:36;;;;;;;1.20;1.20;;;;;;;;;;5053462;28;20655;-79
2022/08/01 13:18:26;;;;;;;1.20;1.20;;;;;;;;;;5053332;28;20244;-79
2022/08/01 13:21:10;;;;;;;1.27;1.27;;;;;;;;;;5054053;28;20225;-81
2022/08/01 13:23:38;;;;;;;0.90;0.90;;;;;;;;;;5054100;28;20252;-80
2022/08/01 13:26:06;;;;;;;1.85;1.75;;;;;;;;;;5053635;28;20288;-79
2022/08/01 13:28:36;;;;;;;1.73;1.63;;;;;;;;;;5053860;28;20292;-80
2022/08/01 13:31:06;;;;;;;1.92;1.83;;;;;;;;;;5053849;28;20225;-80
2022/08/01 13:33:43;;;;;;;1.55;1.45;;;;;;;;;;5053883;28;20572;-80
2022/08/01 13:36:11;;;;;;;1.58;1.48;;;;;;;;;;5053620;28;20216;-80
2022/08/01 13:41:24;;;;;;;2.00;1.90;;;;;;;;;;5053017;28;20228;-80
2022/08/01 13:43:52;;;;;;;1.83;1.73;;;;;;;;;;5052995;28;20317;-78
2022/08/01 13:46:20;;;;;;;1.83;1.73;;;;;;;;;;5052926;28;20724;-80
2022/08/01 13:48:48;;;;;;;1.63;1.52;;;;;;;;;;5052875;28;20212;-80
2022/08/01 13:51:15;;;;;;;2.10;2.00;;;;;;;;;;5052613;28;20654;-81
2022/08/01 13:53:43;;;;;;;2.05;1.95;;;;;;;;;;5052477;28;20696;-79
2022/08/01 13:56:11;;;;;;;1.60;1.50;;;;;;;;;;5052473;28;20704;-79
2022/08/01 13:58:38;;;;;;;1.60;1.50;;;;;;;;;;5052276;28;20696;-79
2022/08/01 14:01:07;;;;;;;1.70;1.60;;;;;;;;;;5052615;28;20260;-79
2022/08/01 14:03:34;;;;;;;1.25;1.25;;;;;;;;;;5052461;28;20659;-80
2022/08/01 14:06:02;;;;;;;1.95;1.38;;;;;;;;;;5052520;28;20678;-79
2022/08/01 14:08:30;;;;;;;1.00;1.00;;;;;;;;;;5052184;28;20649;-81
2022/08/01 14:10:58;;;;;;;1.15;1.05;;;;;;;;;;5052434;28;20775;-80
2022/08/01 14:13:26;;;;;;;0.90;0.90;;;;;;;;;;5054378;28;20650;-79
2022/08/01 14:15:53;;;;;;;1.00;0.90;;;;;;;;;;5052039;28;20296;-79
2022/08/01 14:18:22;;;;;;;1.05;1.00;;;;;;;;;;5051852;28;20228;-79
2022/08/01 14:20:50;;;;;;;0.90;0.90;;;;;;;;;;5051844;28;20280;-79
2022/08/01 14:23:17;;;;;;;1.00;1.00;;;;;;;;;;5052250;28;20228;-80
2022/08/01 14:25:45;;;;;;;1.20;1.20;;;;;;;;;;5051213;28;20296;-80
2022/08/01 14:28:12;;;;;;;1.13;1.13;;;;;;;;;;5051807;28;20311;-79
2022/08/01 14:30:41;;;;;;;1.17;1.17;;;;;;;;;;5051624;28;20249;-80
2022/08/01 14:33:08;;;;;;;1.00;1.00;;;;;;;;;;5052004;28;20209;-79
2022/08/01 14:35:37;;;;;;;1.05;1.05;;;;;;;;;;5052248;28;20224;-79
2022/08/01 14:38:05;;;;;;;0.90;0.90;;;;;;;;;;5051532;28;20292;-79
2022/08/01 14:40:33;;;;;;;0.95;0.95;;;;;;;;;;5051659;28;20257;-79
2022/08/01 14:43:00;;;;;;;1.08;1.08;;;;;;;;;;5051960;28;20216;-80
2022/08/01 14:45:28;;;;;;;1.05;1.05;;;;;;;;;;5052728;28;20209;-80
2022/08/01 14:47:56;;;;;;;1.70;1.10;;;;;;;;;;5051500;28;20224;-80
2022/08/01 14:50:26;;;;;;;1.10;1.10;;;;;;;;;;5051988;28;20217;-80
2022/08/01 14:52:55;;;;;;;0.90;0.90;;;;;;;;;;5051633;28;20212;-79
2022/08/01 14:55:24;;;;;;;0.82;0.82;;;;;;;;;;5051328;28;20568;-79
2022/08/01 14:57:52;;;;;;;0.90;0.90;;;;;;;;;;5051351;28;20212;-79
2022/08/01 15:00:21;;;;;;;1.25;1.23;;;;;;;;;;5051684;28;20706;-79
2022/08/01 15:02:48;;;;;;;0.80;0.80;;;;;;;;;;5051620;28;20229;-79